Time;durP1;ratioP1;P1;durP2;ratioP2;P2;SDS_P1;SDS_P2;PMS_P1;PMS_P2;Temp;Humidity;BMP_temperature;BMP_pressure;BME280_temperature;BME280_humidity;BME280_pressure;Samples;Min_cycle;Max_cycle;Signal;HPM_P1;HPM_P2
2022/12/02 00:01:39;;;;;;;9.40;5.32;;;;;;;;;;5110769;28;20024;-56
2022/12/02 00:04:31;;;;;;;10.05;5.78;;;;;;;;;;5111587;28;20418;-57
2022/12/02 00:06:57;;;;;;;9.40;6.10;;;;;;;;;;5107976;28;20118;-57
2022/12/02 00:09:31;;;;;;;10.75;5.63;;;;;;;;;;5108948;28;20550;-57
2022/12/02 00:11:58;;;;;;;9.15;5.68;;;;;;;;;;5094510;28;20039;-56
2022/12/02 00:14:29;;;;;;;8.70;5.28;;;;;;;;;;5107637;28;20372;-57
2022/12/02 00:16:55;;;;;;;9.73;5.30;;;;;;;;;;5092397;28;20020;-56
2022/12/02 00:19:21;;;;;;;8.70;4.78;;;;;;;;;;5092422;28;20034;-57
2022/12/02 00:21:49;;;;;;;10.98;6.10;;;;;;;;;;5091818;28;20016;-57
2022/12/02 00:24:15;;;;;;;8.32;4.93;;;;;;;;;;5091662;28;20081;-57
2022/12/02 00:26:41;;;;;;;8.45;5.03;;;;;;;;;;5091652;28;20019;-57
2022/12/02 00:29:07;;;;;;;9.98;5.43;;;;;;;;;;5090976;28;20103;-57
2022/12/02 00:31:33;;;;;;;9.88;5.45;;;;;;;;;;5091656;28;20427;-57
2022/12/02 00:33:59;;;;;;;8.10;4.88;;;;;;;;;;5091548;28;20031;-57
2022/12/02 00:36:26;;;;;;;9.95;5.70;;;;;;;;;;5092112;28;20032;-57
2022/12/02 00:38:52;;;;;;;8.38;4.85;;;;;;;;;;5092063;28;20435;-56
2022/12/02 00:41:18;;;;;;;7.55;4.50;;;;;;;;;;5091447;28;20051;-57
2022/12/02 00:46:32;;;;;;;9.55;5.55;;;;;;;;;;5111574;28;20030;-56
2022/12/02 00:48:58;;;;;;;8.70;5.32;;;;;;;;;;5111569;28;20503;-56
2022/12/02 00:51:24;;;;;;;8.20;5.07;;;;;;;;;;5112310;28;20038;-57
2022/12/02 00:53:50;;;;;;;8.57;5.10;;;;;;;;;;5111400;28;20027;-57
2022/12/02 00:56:16;;;;;;;10.45;5.10;;;;;;;;;;5111468;28;20020;-57
2022/12/02 00:58:42;;;;;;;7.60;4.65;;;;;;;;;;5110547;28;20395;-57
2022/12/02 01:01:09;;;;;;;8.82;5.88;;;;;;;;;;5103882;28;20142;-57
2022/12/02 06:08:50;;;;;;;13.20;7.65;;;;;;;;;;5109098;28;20028;-56
2022/12/02 06:11:30;;;;;;;14.88;8.00;;;;;;;;;;5109404;28;20414;-56
2022/12/02 06:14:00;;;;;;;15.20;8.00;;;;;;;;;;5090704;28;20165;-56
2022/12/02 06:16:28;;;;;;;13.23;7.63;;;;;;;;;;5090555;28;20115;-56
2022/12/02 06:18:54;;;;;;;15.35;7.35;;;;;;;;;;5103313;28;20624;-57
2022/12/02 06:21:21;;;;;;;11.82;7.03;;;;;;;;;;5099245;27;20483;-57
2022/12/02 06:23:52;;;;;;;13.10;7.25;;;;;;;;;;5098328;28;20020;-57
2022/12/02 06:26:19;;;;;;;13.23;7.50;;;;;;;;;;5111635;28;20062;-57
2022/12/02 06:28:47;;;;;;;14.05;7.85;;;;;;;;;;5111298;28;20089;-56
2022/12/02 06:31:15;;;;;;;15.60;8.00;;;;;;;;;;5111297;28;20119;-56
2022/12/02 06:33:42;;;;;;;11.02;6.65;;;;;;;;;;5108317;28;20088;-56
2022/12/02 06:36:14;;;;;;;13.00;7.07;;;;;;;;;;5111060;28;20035;-55
2022/12/02 06:38:59;;;;;;;12.77;7.57;;;;;;;;;;5111428;28;20024;-56
2022/12/02 06:41:26;;;;;;;16.42;8.43;;;;;;;;;;5097402;28;20107;-55
2022/12/02 06:46:42;;;;;;;14.63;7.75;;;;;;;;;;5091241;28;20503;-55
2022/12/02 06:49:18;;;;;;;15.35;8.05;;;;;;;;;;5091097;28;20021;-55
2022/12/02 06:51:44;;;;;;;14.90;8.30;;;;;;;;;;5090952;28;20028;-55
2022/12/02 06:54:20;;;;;;;12.77;6.88;;;;;;;;;;5091056;28;20032;-55
2022/12/02 06:56:47;;;;;;;16.52;8.57;;;;;;;;;;5106837;28;20028;-56
2022/12/02 06:59:14;;;;;;;14.57;8.57;;;;;;;;;;5104942;28;20025;-58
2022/12/02 07:01:43;;;;;;;13.95;8.02;;;;;;;;;;5091316;28;20070;-58
2022/12/02 07:04:09;;;;;;;15.77;7.60;;;;;;;;;;5100947;28;20066;-58
2022/12/02 07:06:39;;;;;;;14.38;7.68;;;;;;;;;;5109825;28;20059;-58
2022/12/02 07:09:12;;;;;;;14.40;7.60;;;;;;;;;;5100261;28;20464;-58
2022/12/02 07:11:54;;;;;;;12.10;7.23;;;;;;;;;;5090985;28;20040;-58
2022/12/02 07:14:20;;;;;;;14.20;7.68;;;;;;;;;;5090919;28;20036;-58
2022/12/02 07:16:47;;;;;;;14.75;7.75;;;;;;;;;;5097847;28;20024;-56
2022/12/02 07:19:15;;;;;;;15.93;8.55;;;;;;;;;;5109301;28;20089;-57
2022/12/02 07:21:41;;;;;;;12.88;7.13;;;;;;;;;;5094356;28;20028;-58
2022/12/02 07:24:10;;;;;;;14.10;8.07;;;;;;;;;;5091081;28;20024;-57
2022/12/02 07:26:36;;;;;;;12.82;7.22;;;;;;;;;;5091163;28;20483;-57
2022/12/02 07:29:02;;;;;;;13.30;7.38;;;;;;;;;;5090747;28;20038;-56
2022/12/02 07:31:29;;;;;;;15.63;8.02;;;;;;;;;;5089190;28;20035;-58
2022/12/02 07:33:56;;;;;;;13.10;6.88;;;;;;;;;;5090196;28;20036;-57
2022/12/02 07:36:22;;;;;;;14.40;7.43;;;;;;;;;;5089710;28;20055;-57
2022/12/02 07:38:48;;;;;;;13.57;7.72;;;;;;;;;;5089953;28;20039;-57
2022/12/02 07:41:14;;;;;;;13.30;7.18;;;;;;;;;;5093309;28;20024;-57
2022/12/02 07:43:40;;;;;;;12.85;7.05;;;;;;;;;;5099108;28;20403;-57
2022/12/02 07:46:06;;;;;;;12.30;6.80;;;;;;;;;;5095587;28;20027;-56
2022/12/02 07:48:32;;;;;;;13.13;7.47;;;;;;;;;;5093326;28;20032;-58
2022/12/02 07:50:58;;;;;;;12.63;7.13;;;;;;;;;;5093360;28;20035;-58
2022/12/02 07:53:24;;;;;;;12.68;6.65;;;;;;;;;;5093587;28;20405;-58
2022/12/02 07:55:50;;;;;;;13.07;7.15;;;;;;;;;;5106390;28;20074;-58
2022/12/02 07:58:16;;;;;;;13.55;7.20;;;;;;;;;;5099600;28;20043;-58
2022/12/02 08:00:42;;;;;;;11.68;7.00;;;;;;;;;;5092040;28;20478;-57
2022/12/02 08:03:08;;;;;;;13.68;7.32;;;;;;;;;;5091931;28;20119;-56
2022/12/02 08:05:34;;;;;;;13.48;7.05;;;;;;;;;;5100254;28;20024;-58
2022/12/02 08:08:00;;;;;;;14.00;7.10;;;;;;;;;;5108666;28;20032;-58
2022/12/02 08:10:26;;;;;;;14.18;8.27;;;;;;;;;;5112366;28;20050;-58
2022/12/02 08:12:52;;;;;;;12.90;7.15;;;;;;;;;;5112182;28;20034;-58
2022/12/02 08:15:18;;;;;;;12.85;7.60;;;;;;;;;;5110053;28;20024;-57
2022/12/02 08:17:44;;;;;;;15.10;7.93;;;;;;;;;;5101813;28;20028;-58
2022/12/02 08:20:11;;;;;;;13.63;7.70;;;;;;;;;;5110869;28;20392;-58
2022/12/02 08:22:37;;;;;;;16.33;7.30;;;;;;;;;;5098895;28;20047;-58
2022/12/02 08:25:03;;;;;;;14.02;7.35;;;;;;;;;;5113291;28;20081;-58
2022/12/02 08:27:29;;;;;;;13.07;6.70;;;;;;;;;;5099670;28;20514;-58
2022/12/02 08:29:55;;;;;;;13.32;6.95;;;;;;;;;;5105812;27;20035;-58
2022/12/02 08:32:22;;;;;;;14.25;7.95;;;;;;;;;;5111097;28;20457;-57
2022/12/02 08:34:48;;;;;;;15.00;8.77;;;;;;;;;;5109885;28;20099;-58
2022/12/02 08:37:14;;;;;;;15.93;9.05;;;;;;;;;;5112117;28;20051;-58
2022/12/02 08:39:40;;;;;;;15.57;9.02;;;;;;;;;;5105443;28;20031;-58
2022/12/02 08:42:06;;;;;;;12.27;7.45;;;;;;;;;;5106017;28;20020;-57
2022/12/02 08:44:32;;;;;;;15.15;8.68;;;;;;;;;;5098904;28;20085;-57
2022/12/02 08:46:59;;;;;;;17.17;8.52;;;;;;;;;;5103494;28;20039;-58
2022/12/02 08:49:25;;;;;;;15.07;8.07;;;;;;;;;;5106535;27;20028;-57
2022/12/02 08:51:51;;;;;;;13.68;7.82;;;;;;;;;;5110205;28;20055;-58
2022/12/02 08:54:17;;;;;;;13.80;7.43;;;;;;;;;;5112081;28;20517;-58
2022/12/02 08:56:45;;;;;;;14.57;7.55;;;;;;;;;;5110607;28;20008;-58
2022/12/02 08:59:11;;;;;;;13.95;7.68;;;;;;;;;;5100675;28;20466;-58
2022/12/02 09:01:37;;;;;;;13.32;7.55;;;;;;;;;;5102928;28;20015;-58
2022/12/02 09:04:03;;;;;;;13.73;7.32;;;;;;;;;;5102302;28;20028;-58
2022/12/02 09:06:29;;;;;;;14.40;7.47;;;;;;;;;;5104645;27;20035;-58
2022/12/02 09:08:55;;;;;;;12.38;6.55;;;;;;;;;;5106601;28;20035;-58
2022/12/02 09:11:22;;;;;;;13.18;7.30;;;;;;;;;;5107854;28;20059;-58
2022/12/02 09:13:48;;;;;;;12.07;6.85;;;;;;;;;;5091656;28;20032;-58
2022/12/02 09:16:14;;;;;;;15.32;7.55;;;;;;;;;;5111062;28;20636;-58
2022/12/02 09:18:40;;;;;;;11.38;7.03;;;;;;;;;;5103585;28;20032;-57
2022/12/02 09:21:06;;;;;;;13.15;7.40;;;;;;;;;;5109294;27;20038;-57
2022/12/02 09:23:32;;;;;;;12.60;7.25;;;;;;;;;;5132604;27;20501;-58
2022/12/02 09:25:58;;;;;;;14.10;7.63;;;;;;;;;;5096637;28;20103;-58
2022/12/02 09:28:24;;;;;;;13.75;7.45;;;;;;;;;;5091503;28;20022;-58
2022/12/02 09:30:50;;;;;;;12.27;7.20;;;;;;;;;;5099533;28;20035;-58
2022/12/02 09:33:16;;;;;;;12.43;7.40;;;;;;;;;;5112100;28;20027;-58
2022/12/02 09:35:42;;;;;;;13.88;7.38;;;;;;;;;;5111077;28;20106;-58
2022/12/02 09:38:08;;;;;;;13.90;8.13;;;;;;;;;;5106994;27;20505;-56
2022/12/02 09:40:35;;;;;;;14.23;7.30;;;;;;;;;;5129963;27;20478;-58
2022/12/02 09:43:02;;;;;;;14.00;7.00;;;;;;;;;;5105164;28;20067;-58
2022/12/02 09:45:28;;;;;;;11.55;7.00;;;;;;;;;;5111653;28;20058;-57
2022/12/02 09:47:54;;;;;;;12.65;6.93;;;;;;;;;;5108402;28;20024;-57
2022/12/02 09:50:20;;;;;;;11.13;6.35;;;;;;;;;;5111496;28;20034;-58
2022/12/02 09:52:47;;;;;;;12.82;7.25;;;;;;;;;;5101889;28;20024;-57
2022/12/02 09:55:15;;;;;;;11.95;6.75;;;;;;;;;;5113029;27;20059;-58
2022/12/02 09:57:41;;;;;;;13.15;7.38;;;;;;;;;;5108764;28;20114;-57
2022/12/02 10:00:09;;;;;;;11.65;6.60;;;;;;;;;;5104508;27;20035;-57
2022/12/02 10:02:39;;;;;;;13.48;7.22;;;;;;;;;;5090514;28;20028;-58
2022/12/02 10:05:16;;;;;;;12.23;7.20;;;;;;;;;;5098270;28;20103;-58
2022/12/02 10:07:42;;;;;;;13.77;6.97;;;;;;;;;;5101524;28;20032;-58
2022/12/02 10:10:11;;;;;;;12.80;7.20;;;;;;;;;;5093245;27;20175;-57
2022/12/02 10:12:37;;;;;;;13.63;7.40;;;;;;;;;;5101221;28;20036;-57
2022/12/02 10:15:03;;;;;;;13.45;7.57;;;;;;;;;;5098327;28;20059;-57
2022/12/02 10:17:30;;;;;;;13.75;7.40;;;;;;;;;;5094671;28;20077;-58
2022/12/02 10:19:56;;;;;;;13.57;7.57;;;;;;;;;;5100135;28;20070;-57
2022/12/02 10:22:22;;;;;;;16.42;8.10;;;;;;;;;;5102135;28;20523;-57
2022/12/02 10:24:48;;;;;;;13.23;7.43;;;;;;;;;;5102059;28;20027;-58
2022/12/02 10:27:23;;;;;;;14.13;6.97;;;;;;;;;;5102112;28;20114;-57
2022/12/02 10:29:49;;;;;;;11.73;6.85;;;;;;;;;;5098970;28;20020;-58
2022/12/02 10:32:23;;;;;;;13.68;7.72;;;;;;;;;;5101145;28;20047;-58
2022/12/02 10:35:16;;;;;;;14.38;7.88;;;;;;;;;;5103416;28;20027;-58
2022/12/02 10:37:42;;;;;;;13.85;7.07;;;;;;;;;;5097617;28;20051;-58
2022/12/02 10:40:12;;;;;;;12.85;7.07;;;;;;;;;;5099760;28;20074;-58
2022/12/02 10:42:38;;;;;;;13.18;7.55;;;;;;;;;;5101281;28;20608;-58
2022/12/02 10:45:09;;;;;;;13.55;7.70;;;;;;;;;;5101212;28;20483;-58
2022/12/02 10:47:35;;;;;;;13.32;7.00;;;;;;;;;;5101916;28;20090;-57
2022/12/02 10:50:01;;;;;;;12.07;7.28;;;;;;;;;;5099393;28;20039;-58
2022/12/02 10:52:30;;;;;;;19.38;9.82;;;;;;;;;;5100339;28;20572;-58
2022/12/02 10:54:57;;;;;;;15.73;8.65;;;;;;;;;;5102022;28;20047;-57
2022/12/02 10:57:28;;;;;;;13.82;7.70;;;;;;;;;;5102281;28;20134;-58
2022/12/02 10:59:56;;;;;;;14.73;8.18;;;;;;;;;;5099512;28;20055;-57
2022/12/02 11:02:30;;;;;;;14.35;8.25;;;;;;;;;;5100914;28;20047;-58
2022/12/02 11:05:00;;;;;;;15.13;7.88;;;;;;;;;;5101737;28;20074;-58
2022/12/02 11:07:26;;;;;;;14.82;8.48;;;;;;;;;;5101381;28;20035;-57
2022/12/02 11:09:54;;;;;;;16.23;9.00;;;;;;;;;;5095813;28;20036;-57
2022/12/02 11:12:34;;;;;;;14.30;7.65;;;;;;;;;;5100027;28;20079;-56
2022/12/02 11:15:00;;;;;;;17.25;10.23;;;;;;;;;;5100364;28;20506;-57
2022/12/02 11:17:46;;;;;;;17.20;9.57;;;;;;;;;;5105325;28;20036;-56
2022/12/02 11:20:31;;;;;;;16.25;8.90;;;;;;;;;;5103628;28;20054;-55
2022/12/02 11:22:57;;;;;;;;;;;;;;;;;;5106103;28;20107;-54
2022/12/02 11:25:41;;;;;;;15.85;9.35;;;;;;;;;;5103782;28;19999;-56
2022/12/02 11:28:26;;;;;;;16.52;8.75;;;;;;;;;;5105656;28;20120;-56
2022/12/02 11:31:16;;;;;;;17.50;9.15;;;;;;;;;;5096799;28;20065;-54
2022/12/02 11:33:48;;;;;;;15.85;9.10;;;;;;;;;;5104543;27;20903;-55
2022/12/02 11:36:16;;;;;;;14.52;8.20;;;;;;;;;;5102676;28;20105;-51
2022/12/02 11:39:00;;;;;;;13.95;7.95;;;;;;;;;;5105636;28;20064;-56
2022/12/02 11:41:44;;;;;;;13.30;7.45;;;;;;;;;;5101733;28;20040;-55
2022/12/02 11:44:24;;;;;;;13.73;8.80;;;;;;;;;;5107027;27;20046;-56
2022/12/02 11:46:52;;;;;;;15.07;7.72;;;;;;;;;;5103019;28;20395;-55
2022/12/02 11:49:32;;;;;;;15.13;7.95;;;;;;;;;;5105266;27;20035;-55
2022/12/02 11:52:04;;;;;;;13.80;7.97;;;;;;;;;;5103783;28;20545;-55
2022/12/02 11:54:30;;;;;;;14.27;7.78;;;;;;;;;;5104262;27;20061;-55
2022/12/02 11:56:57;;;;;;;12.68;7.50;;;;;;;;;;5100810;28;20063;-56
2022/12/02 11:59:27;;;;;;;14.57;7.72;;;;;;;;;;5104005;27;20024;-56
2022/12/02 12:02:12;;;;;;;12.45;7.70;;;;;;;;;;5102315;28;20505;-55
2022/12/02 12:04:38;;;;;;;14.38;7.38;;;;;;;;;;5105107;28;20043;-54
2022/12/02 12:07:04;;;;;;;12.15;6.97;;;;;;;;;;5103146;28;20058;-55
2022/12/02 12:09:30;;;;;;;14.80;8.13;;;;;;;;;;5101211;27;20023;-53
2022/12/02 12:12:12;;;;;;;12.57;6.72;;;;;;;;;;5099735;28;20028;-53
2022/12/02 12:14:53;;;;;;;13.60;7.15;;;;;;;;;;5104733;27;20044;-54
2022/12/02 12:17:30;;;;;;;12.05;7.10;;;;;;;;;;5103142;28;20027;-56
2022/12/02 12:19:56;;;;;;;12.93;6.78;;;;;;;;;;5102099;28;20096;-54
2022/12/02 12:22:30;;;;;;;11.70;7.15;;;;;;;;;;5102738;28;20024;-55
2022/12/02 12:25:15;;;;;;;11.55;6.72;;;;;;;;;;5103135;28;20067;-55
2022/12/02 12:27:41;;;;;;;14.75;8.35;;;;;;;;;;5104121;27;20043;-56
2022/12/02 12:30:07;;;;;;;14.07;7.90;;;;;;;;;;5103058;28;20044;-54
2022/12/02 12:32:33;;;;;;;14.88;8.27;;;;;;;;;;5103823;28;20107;-55
2022/12/02 12:34:59;;;;;;;15.10;8.32;;;;;;;;;;5103436;28;20142;-54
2022/12/02 12:37:25;;;;;;;17.48;9.88;;;;;;;;;;5103501;28;20117;-55
2022/12/02 12:39:51;;;;;;;18.63;10.40;;;;;;;;;;5102779;28;20088;-55
2022/12/02 12:42:17;;;;;;;18.17;10.40;;;;;;;;;;5102487;28;20043;-56
2022/12/02 12:44:43;;;;;;;17.00;10.40;;;;;;;;;;5104717;27;20660;-57
2022/12/02 12:47:09;;;;;;;15.82;9.18;;;;;;;;;;5103881;28;20034;-55
2022/12/02 12:49:35;;;;;;;17.88;9.88;;;;;;;;;;5103278;28;20063;-54
2022/12/02 12:52:02;;;;;;;13.88;7.82;;;;;;;;;;5102235;28;20031;-54
2022/12/02 12:54:28;;;;;;;11.73;7.50;;;;;;;;;;5098950;28;20073;-55
2022/12/02 12:56:54;;;;;;;12.32;7.18;;;;;;;;;;5102565;28;20024;-55
2022/12/02 12:59:20;;;;;;;12.93;7.25;;;;;;;;;;5102495;27;20023;-53
2022/12/02 13:01:46;;;;;;;12.07;7.35;;;;;;;;;;5102499;28;20072;-56
2022/12/02 13:04:12;;;;;;;12.57;7.38;;;;;;;;;;5105678;27;20031;-55
2022/12/02 13:06:39;;;;;;;11.48;7.63;;;;;;;;;;5102181;28;20036;-55
2022/12/02 13:09:07;;;;;;;12.32;6.93;;;;;;;;;;5102836;27;20037;-56
2022/12/02 13:11:33;;;;;;;13.02;7.07;;;;;;;;;;5094925;28;20169;-56
2022/12/02 13:13:59;;;;;;;11.85;6.85;;;;;;;;;;5102928;27;20129;-57
2022/12/02 13:16:25;;;;;;;11.85;6.53;;;;;;;;;;5100855;28;20022;-56
2022/12/02 13:18:51;;;;;;;11.00;6.38;;;;;;;;;;5102887;28;20024;-55
2022/12/02 13:21:17;;;;;;;12.40;6.97;;;;;;;;;;5099632;28;20062;-56
2022/12/02 13:23:43;;;;;;;12.07;7.15;;;;;;;;;;5102276;28;20056;-54
2022/12/02 13:26:09;;;;;;;12.90;6.95;;;;;;;;;;5102498;28;20050;-56
2022/12/02 13:28:35;;;;;;;10.38;6.50;;;;;;;;;;5102745;27;20483;-57
2022/12/02 13:31:01;;;;;;;11.23;6.72;;;;;;;;;;5098527;28;20082;-57
2022/12/02 13:33:27;;;;;;;11.00;6.07;;;;;;;;;;5102502;28;20412;-57
2022/12/02 13:35:53;;;;;;;11.95;6.82;;;;;;;;;;5101911;28;20024;-57
2022/12/02 13:38:20;;;;;;;11.10;6.63;;;;;;;;;;5101232;28;20039;-57
2022/12/02 13:40:46;;;;;;;10.60;6.50;;;;;;;;;;5099490;28;20494;-56
2022/12/02 13:43:13;;;;;;;11.15;6.50;;;;;;;;;;5102069;28;20566;-55
2022/12/02 13:45:40;;;;;;;13.45;6.20;;;;;;;;;;5099855;28;20039;-56
2022/12/02 13:48:06;;;;;;;14.00;7.75;;;;;;;;;;5100994;28;20032;-57
2022/12/02 13:50:32;;;;;;;18.98;9.55;;;;;;;;;;5099453;28;20023;-55
2022/12/02 13:52:58;;;;;;;17.48;9.63;;;;;;;;;;5102013;28;20039;-56
2022/12/02 13:55:24;;;;;;;14.07;8.20;;;;;;;;;;5101741;28;20102;-57
2022/12/02 13:57:50;;;;;;;14.25;7.95;;;;;;;;;;5100311;28;20114;-56
2022/12/02 14:00:16;;;;;;;14.00;8.35;;;;;;;;;;5099837;28;20050;-56
2022/12/02 14:02:42;;;;;;;14.80;7.95;;;;;;;;;;5102718;27;20089;-57
2022/12/02 14:05:09;;;;;;;12.93;7.28;;;;;;;;;;5101620;28;20105;-56
2022/12/02 14:07:35;;;;;;;12.25;7.35;;;;;;;;;;5103244;28;21404;-56
2022/12/02 14:10:01;;;;;;;12.23;7.28;;;;;;;;;;5099927;28;20036;-55
2022/12/02 14:12:27;;;;;;;13.93;8.02;;;;;;;;;;5093819;28;20035;-57
2022/12/02 14:14:53;;;;;;;13.27;7.60;;;;;;;;;;5101672;28;20487;-56
2022/12/02 14:17:19;;;;;;;12.55;7.22;;;;;;;;;;5098825;27;20080;-56
2022/12/02 14:19:45;;;;;;;11.88;7.22;;;;;;;;;;5097946;28;20138;-57
2022/12/02 14:22:11;;;;;;;12.60;6.75;;;;;;;;;;5100719;28;20028;-56
2022/12/02 14:24:37;;;;;;;12.60;6.90;;;;;;;;;;5101564;28;20034;-57
2022/12/02 14:27:03;;;;;;;10.98;7.10;;;;;;;;;;5098385;28;20032;-57
2022/12/02 14:29:29;;;;;;;12.07;7.00;;;;;;;;;;5096343;28;20506;-56
2022/12/02 14:31:55;;;;;;;10.23;6.28;;;;;;;;;;5094871;28;20038;-56
2022/12/02 14:34:21;;;;;;;9.57;5.90;;;;;;;;;;5097409;28;20015;-58
2022/12/02 14:36:47;;;;;;;12.02;6.35;;;;;;;;;;5095674;28;20085;-57
2022/12/02 14:39:13;;;;;;;11.15;6.63;;;;;;;;;;5093668;28;20035;-56
2022/12/02 14:41:39;;;;;;;12.90;7.05;;;;;;;;;;5095164;28;20059;-56
2022/12/02 14:44:06;;;;;;;11.43;6.80;;;;;;;;;;5098202;28;20032;-56
2022/12/02 14:46:32;;;;;;;12.43;6.55;;;;;;;;;;5096961;28;20063;-56
2022/12/02 14:48:58;;;;;;;11.55;6.78;;;;;;;;;;5100573;28;20501;-56
2022/12/02 14:51:24;;;;;;;9.90;6.55;;;;;;;;;;5097840;28;20456;-55
2022/12/02 14:53:50;;;;;;;11.50;6.75;;;;;;;;;;5101861;28;20035;-56
2022/12/02 14:56:16;;;;;;;10.50;6.40;;;;;;;;;;5099309;28;20116;-56
2022/12/02 14:58:42;;;;;;;11.05;6.32;;;;;;;;;;5103761;28;20031;-56
2022/12/02 15:01:08;;;;;;;11.00;6.53;;;;;;;;;;5099969;28;20035;-55
2022/12/02 15:03:34;;;;;;;10.30;6.07;;;;;;;;;;5101150;28;20039;-55
2022/12/02 15:06:00;;;;;;;13.20;7.13;;;;;;;;;;5098791;28;20023;-56
2022/12/02 15:08:26;;;;;;;14.77;7.60;;;;;;;;;;5099046;28;20028;-57
2022/12/02 15:10:52;;;;;;;10.93;6.78;;;;;;;;;;5097423;28;20461;-57
2022/12/02 15:13:18;;;;;;;13.57;7.22;;;;;;;;;;5098419;28;20023;-56
2022/12/02 15:15:44;;;;;;;13.77;7.45;;;;;;;;;;5100996;27;20441;-57
2022/12/02 15:18:10;;;;;;;13.55;7.88;;;;;;;;;;5101208;28;20380;-56
2022/12/02 15:20:36;;;;;;;11.75;6.97;;;;;;;;;;5097764;27;20035;-54
2022/12/02 15:23:02;;;;;;;11.88;7.40;;;;;;;;;;5100017;28;20077;-56
2022/12/02 15:25:28;;;;;;;11.98;6.68;;;;;;;;;;5100465;27;20032;-56
2022/12/02 15:27:54;;;;;;;12.65;7.53;;;;;;;;;;5100841;28;20050;-56
2022/12/02 15:30:20;;;;;;;12.80;7.38;;;;;;;;;;5097364;28;20031;-56
2022/12/02 15:32:47;;;;;;;11.95;7.40;;;;;;;;;;5100166;28;20603;-56
2022/12/02 15:35:13;;;;;;;11.85;6.90;;;;;;;;;;5099745;27;20155;-56
2022/12/02 15:37:39;;;;;;;11.60;6.93;;;;;;;;;;5101226;28;20031;-56
2022/12/02 15:40:06;;;;;;;11.23;7.25;;;;;;;;;;5096652;27;20047;-54
2022/12/02 15:42:32;;;;;;;12.65;7.82;;;;;;;;;;5099575;28;20039;-56
2022/12/02 15:44:58;;;;;;;11.68;6.88;;;;;;;;;;5100401;27;20454;-54
2022/12/02 15:47:24;;;;;;;13.15;7.53;;;;;;;;;;5102272;27;20015;-51
2022/12/02 15:49:50;;;;;;;10.75;6.75;;;;;;;;;;5102381;28;20657;-53
2022/12/02 15:52:16;;;;;;;11.95;7.13;;;;;;;;;;5101088;28;20039;-55
2022/12/02 15:54:42;;;;;;;13.13;7.60;;;;;;;;;;5103977;28;20024;-55
2022/12/02 15:57:08;;;;;;;12.48;7.10;;;;;;;;;;5099582;27;20043;-55
2022/12/02 15:59:35;;;;;;;11.25;6.95;;;;;;;;;;5099637;28;20474;-55
2022/12/02 16:02:01;;;;;;;14.70;7.93;;;;;;;;;;5099470;28;20028;-55
2022/12/02 16:04:28;;;;;;;11.02;6.80;;;;;;;;;;5100620;28;20401;-55
2022/12/02 16:06:54;;;;;;;13.40;7.30;;;;;;;;;;5097010;28;20023;-56
2022/12/02 16:09:20;;;;;;;12.05;7.32;;;;;;;;;;5098804;28;20028;-56
2022/12/02 16:11:46;;;;;;;11.18;6.55;;;;;;;;;;5098371;28;20544;-56
2022/12/02 16:14:12;;;;;;;11.23;6.90;;;;;;;;;;5097924;28;20108;-55
2022/12/02 16:16:38;;;;;;;10.40;6.13;;;;;;;;;;5098717;27;20046;-54
2022/12/02 16:19:04;;;;;;;14.60;7.50;;;;;;;;;;5102117;28;20498;-54
2022/12/02 16:21:30;;;;;;;12.32;7.53;;;;;;;;;;5097762;28;20034;-56
2022/12/02 16:23:56;;;;;;;15.35;8.20;;;;;;;;;;5102524;28;20092;-56
2022/12/02 16:26:22;;;;;;;13.63;8.25;;;;;;;;;;5096894;27;20080;-56
2022/12/02 16:28:48;;;;;;;13.90;8.07;;;;;;;;;;5100533;28;20038;-56
2022/12/02 16:31:14;;;;;;;12.57;7.90;;;;;;;;;;5093958;27;20031;-56
2022/12/02 16:33:40;;;;;;;15.18;8.32;;;;;;;;;;5101051;28;20078;-56
2022/12/02 16:36:07;;;;;;;12.77;8.05;;;;;;;;;;5097940;27;20063;-55
2022/12/02 16:38:33;;;;;;;11.30;6.75;;;;;;;;;;5103478;28;20562;-55
2022/12/02 16:40:59;;;;;;;13.05;8.40;;;;;;;;;;5101456;27;20040;-56
2022/12/02 16:43:25;;;;;;;17.13;9.95;;;;;;;;;;5088428;28;20027;-56
2022/12/02 16:45:51;;;;;;;14.95;9.70;;;;;;;;;;5088877;28;20031;-55
2022/12/02 16:48:18;;;;;;;15.20;9.73;;;;;;;;;;5103389;27;20043;-54
2022/12/02 16:50:44;;;;;;;14.50;9.38;;;;;;;;;;5110033;27;20078;-55
2022/12/02 16:53:10;;;;;;;15.32;10.10;;;;;;;;;;5103568;28;20497;-55
2022/12/02 16:55:36;;;;;;;16.08;9.73;;;;;;;;;;5105331;28;20124;-55
2022/12/02 16:58:03;;;;;;;13.00;8.48;;;;;;;;;;5107821;28;20535;-55
2022/12/02 17:00:29;;;;;;;13.57;8.20;;;;;;;;;;5097243;28;20080;-55
2022/12/02 17:02:55;;;;;;;14.38;8.35;;;;;;;;;;5110047;28;20031;-56
2022/12/02 17:05:22;;;;;;;15.23;8.38;;;;;;;;;;5110204;28;20027;-55
2022/12/02 17:07:49;;;;;;;14.68;8.50;;;;;;;;;;5104570;28;20027;-56
2022/12/02 17:10:16;;;;;;;13.43;8.02;;;;;;;;;;5097675;28;20127;-56
2022/12/02 17:12:42;;;;;;;13.20;7.72;;;;;;;;;;5105886;28;20464;-57
2022/12/02 17:15:09;;;;;;;15.75;8.68;;;;;;;;;;5108775;27;20035;-56
2022/12/02 17:17:35;;;;;;;13.80;7.97;;;;;;;;;;5109398;27;20085;-58
2022/12/02 17:20:01;;;;;;;14.45;8.07;;;;;;;;;;5104573;28;20119;-57
2022/12/02 17:22:27;;;;;;;15.63;8.80;;;;;;;;;;5091731;28;20058;-57
2022/12/02 17:24:53;;;;;;;12.98;7.88;;;;;;;;;;5119706;27;20046;-55
2022/12/02 17:27:19;;;;;;;14.43;8.13;;;;;;;;;;5110750;28;20478;-56
2022/12/02 17:29:45;;;;;;;13.90;8.75;;;;;;;;;;5106138;28;20054;-58
2022/12/02 17:32:11;;;;;;;14.32;8.25;;;;;;;;;;5099608;28;20036;-54
2022/12/02 17:34:37;;;;;;;15.60;8.75;;;;;;;;;;5093551;28;20020;-58
2022/12/02 17:37:03;;;;;;;16.58;9.38;;;;;;;;;;5098786;28;20035;-56
2022/12/02 17:39:30;;;;;;;29.73;14.73;;;;;;;;;;5100067;27;20494;-57
2022/12/02 17:41:56;;;;;;;66.63;31.70;;;;;;;;;;5115881;27;20031;-57
2022/12/02 17:44:24;;;;;;;101.63;41.22;;;;;;;;;;5104949;28;20026;-56
2022/12/02 17:46:50;;;;;;;132.57;50.80;;;;;;;;;;5093676;28;20023;-56
2022/12/02 17:49:16;;;;;;;119.45;46.53;;;;;;;;;;5088712;28;20391;-57
2022/12/02 17:51:42;;;;;;;101.47;42.83;;;;;;;;;;5098110;28;20029;-55
2022/12/02 17:54:08;;;;;;;98.88;39.78;;;;;;;;;;5100960;28;20027;-56
2022/12/02 17:56:34;;;;;;;80.07;34.47;;;;;;;;;;5110313;27;20024;-55
2022/12/02 17:59:00;;;;;;;70.53;30.08;;;;;;;;;;5095391;28;20028;-55
2022/12/02 18:01:26;;;;;;;54.85;25.90;;;;;;;;;;5095054;28;20035;-54
2022/12/02 18:03:52;;;;;;;49.97;20.67;;;;;;;;;;5096383;28;20102;-55
2022/12/02 18:06:18;;;;;;;35.17;17.67;;;;;;;;;;5099858;28;20073;-54
2022/12/02 18:08:44;;;;;;;33.35;16.33;;;;;;;;;;5090374;28;20020;-55
2022/12/02 18:11:10;;;;;;;27.65;13.85;;;;;;;;;;5105997;28;20038;-56
2022/12/02 18:13:36;;;;;;;25.35;12.77;;;;;;;;;;5093954;28;20036;-54
2022/12/02 18:16:04;;;;;;;23.55;11.77;;;;;;;;;;5098273;28;20073;-54
2022/12/02 18:18:30;;;;;;;19.48;10.85;;;;;;;;;;5094081;28;20054;-55
2022/12/02 18:20:56;;;;;;;19.90;10.48;;;;;;;;;;5097701;28;20036;-55
2022/12/02 18:23:22;;;;;;;17.92;10.23;;;;;;;;;;5091572;28;20024;-55
2022/12/02 18:25:48;;;;;;;21.08;11.52;;;;;;;;;;5098673;28;20039;-53
2022/12/02 18:28:14;;;;;;;20.58;11.07;;;;;;;;;;5100119;28;20051;-55
2022/12/02 18:30:40;;;;;;;19.42;10.65;;;;;;;;;;5095666;28;20070;-55
2022/12/02 18:33:06;;;;;;;22.33;12.70;;;;;;;;;;5098639;28;20024;-54
2022/12/02 18:35:32;;;;;;;20.92;11.70;;;;;;;;;;5100341;28;20036;-55
2022/12/02 18:37:58;;;;;;;20.05;11.38;;;;;;;;;;5103191;28;20026;-54
2022/12/02 18:40:24;;;;;;;18.00;10.43;;;;;;;;;;5080797;28;20487;-56
2022/12/02 18:42:50;;;;;;;19.05;10.77;;;;;;;;;;5096774;28;20070;-57
2022/12/02 18:45:16;;;;;;;22.52;12.23;;;;;;;;;;5091202;28;20020;-55
2022/12/02 18:47:42;;;;;;;34.20;14.35;;;;;;;;;;5102296;28;20023;-56
2022/12/02 18:50:09;;;;;;;35.83;15.13;;;;;;;;;;5103278;28;20109;-57
2022/12/02 18:52:35;;;;;;;35.90;14.75;;;;;;;;;;5105258;28;20023;-57
2022/12/02 18:55:01;;;;;;;33.00;16.15;;;;;;;;;;5095631;28;20120;-56
2022/12/02 18:57:27;;;;;;;35.85;16.80;;;;;;;;;;5092212;28;20498;-56
2022/12/02 18:59:53;;;;;;;31.38;15.77;;;;;;;;;;5099684;28;20028;-55
2022/12/02 19:02:20;;;;;;;27.63;13.65;;;;;;;;;;5096780;28;20032;-54
2022/12/02 19:04:48;;;;;;;25.08;13.10;;;;;;;;;;5089816;28;20395;-56
2022/12/02 19:07:15;;;;;;;44.50;17.55;;;;;;;;;;5092810;28;20536;-55
2022/12/02 19:09:41;;;;;;;44.92;18.38;;;;;;;;;;5097164;28;20077;-56
2022/12/02 19:12:07;;;;;;;42.60;16.92;;;;;;;;;;5091910;28;20074;-56
2022/12/02 19:14:33;;;;;;;33.78;14.30;;;;;;;;;;5095239;28;20019;-56
2022/12/02 19:16:59;;;;;;;30.70;13.70;;;;;;;;;;5095567;28;20024;-56
2022/12/02 19:19:25;;;;;;;24.30;12.00;;;;;;;;;;5096897;28;20042;-57
2022/12/02 19:21:51;;;;;;;24.75;11.82;;;;;;;;;;5101984;28;20479;-55
2022/12/02 19:24:17;;;;;;;21.70;10.48;;;;;;;;;;5086497;28;20536;-56
2022/12/02 19:26:43;;;;;;;18.33;9.35;;;;;;;;;;5093811;28;20111;-55
2022/12/02 19:29:09;;;;;;;18.90;9.90;;;;;;;;;;5100081;28;20070;-55
2022/12/02 19:31:35;;;;;;;15.95;8.90;;;;;;;;;;5095551;28;20052;-54
2022/12/02 19:34:01;;;;;;;16.75;9.02;;;;;;;;;;5101075;28;20395;-55
2022/12/02 19:36:27;;;;;;;16.58;8.60;;;;;;;;;;5089258;28;20086;-54
2022/12/02 19:38:53;;;;;;;16.23;9.95;;;;;;;;;;5102690;28;20522;-55
2022/12/02 19:41:19;;;;;;;17.60;9.88;;;;;;;;;;5102778;28;20114;-54